Time;durP1;ratioP1;P1;durP2;ratioP2;P2;SDS_P1;SDS_P2;PMS_P1;PMS_P2;Temp;Humidity;BMP_temperature;BMP_pressure;BME280_temperature;BME280_humidity;BME280_pressure;Samples;Min_cycle;Max_cycle;Signal;HPM_P1;HPM_P2
2022/04/13 00:00:09;;;;;;;13.83;9.97;;;;;;;4.67;76.09;99333.19;5014154;28;20417;-87
2022/04/13 00:02:35;;;;;;;16.83;10.27;;;;;;;5.60;75.43;99492.31;5012716;28;20413;-87
2022/04/13 00:05:00;;;;;;;17.83;11.57;;;;;;;6.94;74.40;99703.72;5014001;28;20449;-86
2022/04/13 00:07:26;;;;;;;16.03;11.43;;;;;;;4.81;74.67;99355.81;5013862;28;20159;-86
2022/04/13 00:09:51;;;;;;;14.87;11.67;;;;;;;4.44;73.45;99277.34;5014562;28;20170;-87
2022/04/13 00:12:16;;;;;;;16.73;11.73;;;;;;;6.66;72.97;99644.88;5022443;28;20178;-86
2022/04/13 00:14:42;;;;;;;18.93;11.63;;;;;;;4.28;72.60;99225.38;5031078;28;20155;-87
2022/04/13 00:17:07;;;;;;;14.40;10.57;;;;;;;6.08;72.67;99524.72;5016536;28;20173;-86
2022/04/13 00:19:33;;;;;;;18.37;11.07;;;;;;;6.46;72.96;99599.25;5015273;28;20205;-86
2022/04/13 00:21:58;;;;;;;16.13;11.10;;;;;;;5.26;74.25;99402.28;5012679;28;20720;-87
2022/04/13 00:24:24;;;;;;;17.13;11.77;;;;;;;6.61;73.44;99636.19;5012314;28;20187;-86
2022/04/13 00:26:49;;;;;;;16.10;11.53;;;;;;;6.37;74.32;99605.34;5012393;28;20647;-86
2022/04/13 00:29:15;;;;;;;19.77;11.13;;;;;;;4.48;75.57;99292.66;5013064;28;20159;-87
2022/04/13 00:31:40;;;;;;;17.80;11.17;;;;;;;5.01;75.31;99396.47;5012051;28;20283;-86
2022/04/13 00:34:05;;;;;;;19.90;11.53;;;;;;;5.59;76.98;99491.44;5012227;28;20190;-86
2022/04/13 00:36:31;;;;;;;13.40;9.70;;;;;;;4.29;73.10;99247.13;5013328;28;20163;-86
2022/04/13 00:38:56;;;;;;;14.30;10.30;;;;;;;6.90;73.64;99712.72;5013515;28;20734;-86
2022/04/13 00:41:22;;;;;;;14.60;10.20;;;;;;;6.40;74.39;99640.75;5020603;28;20174;-85
2022/04/13 00:44:11;;;;;;;14.53;10.27;;;;;;;6.62;73.69;99658.91;5036357;28;20202;-84
2022/04/13 00:46:37;;;;;;;14.77;9.60;;;;;;;5.74;75.41;99531.75;5014362;28;20166;-85
2022/04/13 00:49:05;;;;;;;15.33;10.43;;;;;;;5.13;73.97;99394.75;5013818;28;20417;-85
2022/04/13 00:51:30;;;;;;;15.80;9.67;;;;;;;4.73;73.58;99337.75;5013465;28;20409;-87
2022/04/13 00:53:57;;;;;;;15.87;10.90;;;;;;;6.85;75.35;99708.16;5012820;28;20398;-86
2022/04/13 00:56:25;;;;;;;18.17;10.70;;;;;;;4.93;74.23;99382.56;5001811;28;20179;-86
2022/04/13 00:58:57;;;;;;;19.03;10.67;;;;;;;6.80;74.30;99712.03;4993032;28;20472;-86
2022/04/13 01:01:25;;;;;;;15.60;10.10;;;;;;;6.36;74.61;99639.69;4993269;28;20398;-87
2022/04/13 01:03:52;;;;;;;13.67;10.00;;;;;;;6.73;74.90;99704.91;4991548;28;20454;-86
2022/04/13 01:06:19;;;;;;;13.00;9.67;;;;;;;5.92;75.77;99590.72;4993094;28;20486;-86
2022/04/13 01:08:48;;;;;;;15.50;9.93;;;;;;;6.81;75.43;99699.53;4993286;28;20403;-88
2022/04/13 01:11:14;;;;;;;16.40;10.10;;;;;;;4.58;75.20;99331.75;4993745;28;20399;-87
2022/04/13 01:13:40;;;;;;;16.87;9.70;;;;;;;6.15;75.46;99608.16;4993612;28;20387;-85
2022/04/13 01:16:06;;;;;;;15.77;9.67;;;;;;;4.54;74.98;99372.41;4993540;28;20425;-86
2022/04/13 01:18:32;;;;;;;18.03;10.10;;;;;;;4.83;75.54;99379.34;4992505;28;20160;-87
2022/04/13 01:20:58;;;;;;;17.13;10.30;;;;;;;5.19;74.98;99455.34;4990408;28;20496;-87
2022/04/13 01:23:24;;;;;;;17.43;10.13;;;;;;;4.99;74.73;99453.19;4992452;28;20510;-87
2022/04/13 01:25:51;;;;;;;15.17;10.37;;;;;;;4.70;75.66;99376.03;4992493;28;20938;-86
2022/04/13 01:28:17;;;;;;;18.47;11.27;;;;;;;6.41;77.15;99698.66;4992220;28;20167;-85
2022/04/13 01:30:42;;;;;;;15.97;11.50;;;;;;;4.10;78.13;99365.28;4992613;28;20398;-86
2022/04/13 01:33:08;;;;;;;17.70;11.40;;;;;;;5.63;78.64;99572.88;5001148;28;20183;-86
2022/04/13 01:35:33;;;;;;;19.17;11.80;;;;;;;5.95;80.75;99658.75;4995610;28;20600;-86
2022/04/13 01:37:59;;;;;;;15.73;11.10;;;;;;;4.50;81.27;99443.16;4992201;28;20163;-86
2022/04/13 01:40:25;;;;;;;18.63;11.80;;;;;;;5.06;84.54;99550.66;4992300;28;20632;-86
2022/04/13 01:42:50;;;;;;;22.53;13.53;;;;;;;4.09;85.21;99451.19;4990746;28;20245;-86
2022/04/13 01:45:19;;;;;;;20.93;13.07;;;;;;;5.41;87.55;99701.13;4992027;28;20167;-86
2022/04/13 01:47:51;;;;;;;20.20;12.10;;;;;;;5.37;87.63;99671.53;4990647;28;20263;-86
2022/04/13 01:50:19;;;;;;;22.27;12.33;;;;;;;3.76;89.44;99416.34;4992338;28;20439;-86
2022/04/13 01:52:45;;;;;;;21.97;12.93;;;;;;;4.95;94.82;99686.16;4992508;28;20415;-85
2022/04/13 01:55:11;;;;;;;20.67;12.83;;;;;;;2.95;97.14;99357.16;4993731;28;20417;-86
2022/04/13 01:57:37;;;;;;;20.30;12.97;;;;;;;4.75;98.74;99687.28;4992488;28;20935;-86
2022/04/13 02:00:05;;;;;;;23.97;13.10;;;;;;;4.95;98.77;99683.63;4991749;28;20167;-86
2022/04/13 02:02:31;;;;;;;20.07;12.93;;;;;;;2.84;96.40;99280.50;5007047;28;20402;-86
2022/04/13 02:04:57;;;;;;;19.77;12.87;;;;;;;3.14;95.41;99308.44;4991876;28;20458;-86
2022/04/13 02:07:22;;;;;;;24.20;13.67;;;;;;;5.32;94.04;99715.53;4992160;28;20244;-86
2022/04/13 02:09:47;;;;;;;21.37;12.63;;;;;;;3.35;93.85;99350.84;4991892;28;20163;-86
2022/04/13 02:12:13;;;;;;;21.97;12.73;;;;;;;4.43;93.70;99553.75;4990901;28;20633;-86
2022/04/13 02:14:38;;;;;;;20.67;12.90;;;;;;;2.71;94.20;99235.41;4991665;28;20163;-86
2022/04/13 02:17:04;;;;;;;21.57;12.73;;;;;;;3.89;93.83;99428.06;4991791;28;20174;-86
2022/04/13 02:19:29;;;;;;;24.07;13.37;;;;;;;3.79;97.36;99481.59;4992163;28;20161;-86
2022/04/13 02:21:55;;;;;;;20.53;13.27;;;;;;;2.49;96.80;99237.13;4992200;28;20643;-87
2022/04/13 02:24:20;;;;;;;21.70;13.13;;;;;;;3.68;96.74;99444.94;4991831;28;20193;-86
2022/04/13 02:26:45;;;;;;;26.23;14.57;;;;;;;2.93;95.22;99285.28;4991905;28;20252;-86
2022/04/13 02:29:11;;;;;;;20.37;13.37;;;;;;;4.68;94.32;99575.63;4990812;28;20621;-85
2022/04/13 02:31:36;;;;;;;35.73;16.77;;;;;;;4.01;92.03;99452.31;4990493;28;20171;-85
2022/04/13 02:34:04;;;;;;;41.27;20.40;;;;;;;4.17;92.05;99482.66;4995719;28;20161;-85
2022/04/13 02:36:33;;;;;;;37.83;16.53;;;;;;;3.30;92.22;99357.16;5011269;28;20171;-86
2022/04/13 02:38:59;;;;;;;30.07;15.50;;;;;;;3.76;93.75;99463.91;5016783;28;20413;-85
2022/04/13 02:41:24;;;;;;;26.07;14.20;;;;;;;4.51;94.44;99573.59;5000926;28;20407;-86
2022/04/13 02:43:49;;;;;;;29.07;14.80;;;;;;;4.23;92.21;99511.44;4998599;28;20449;-86
2022/04/13 02:46:15;;;;;;;21.63;13.57;;;;;;;4.29;93.54;99565.34;4997506;28;20187;-86
2022/04/13 02:48:40;;;;;;;24.77;13.77;;;;;;;3.63;92.57;99402.81;4993958;28;20226;-86
2022/04/13 02:51:06;;;;;;;19.67;12.33;;;;;;;2.60;94.60;99296.25;4994180;28;20269;-86
2022/04/13 02:53:31;;;;;;;55.90;29.90;;;;;;;3.87;96.34;99540.66;4995897;28;20172;-85
2022/04/13 02:55:58;;;;;;;65.77;34.27;;;;;;;4.01;96.78;99546.63;4994729;28;20167;-86
2022/04/13 02:58:23;;;;;;;46.30;26.77;;;;;;;2.27;97.30;99291.28;4995377;28;20172;-85
2022/04/13 03:00:49;;;;;;;31.27;19.57;;;;;;;2.49;97.60;99294.59;4995649;28;20467;-86
2022/04/13 03:03:14;;;;;;;23.97;15.40;;;;;;;3.86;97.45;99546.41;4995553;28;20198;-86
2022/04/13 03:05:39;;;;;;;28.00;15.67;;;;;;;3.79;96.83;99500.78;4995393;28;20604;-86
2022/04/13 03:08:08;;;;;;;27.87;15.17;;;;;;;4.71;96.75;99673.66;4996940;28;20168;-86
2022/04/13 03:10:33;;;;;;;25.47;14.97;;;;;;;4.70;96.00;99694.47;5001866;28;20159;-85
2022/04/13 03:12:59;;;;;;;24.17;14.53;;;;;;;2.25;97.72;99295.31;5019998;28;20429;-86
2022/04/13 03:15:24;;;;;;;25.40;14.57;;;;;;;4.11;96.52;99612.53;4997261;28;20168;-87
2022/04/13 03:17:53;;;;;;;23.23;14.77;;;;;;;3.72;94.75;99504.47;4995871;28;20668;-86
2022/04/13 03:20:18;;;;;;;23.77;13.67;;;;;;;3.45;94.49;99492.47;4995616;28;20593;-86
2022/04/13 03:22:45;;;;;;;31.13;17.63;;;;;;;2.64;95.50;99375.66;5000563;28;20403;-86
2022/04/13 03:25:10;;;;;;;28.10;18.17;;;;;;;4.45;95.18;99695.97;5013218;28;20222;-86
2022/04/13 03:27:37;;;;;;;25.47;14.43;;;;;;;3.65;94.04;99544.88;4995881;28;20463;-85
2022/04/13 03:30:04;;;;;;;25.23;13.67;;;;;;;4.65;91.73;99685.75;4993829;28;20533;-85
2022/04/13 03:32:39;;;;;;;23.90;13.23;;;;;;;2.42;91.08;99324.84;4999604;28;20449;-86
2022/04/13 03:35:07;;;;;;;23.53;14.27;;;;;;;4.48;90.80;99671.13;5000210;28;20949;-86
2022/04/13 03:37:32;;;;;;;23.53;12.97;;;;;;;2.52;91.80;99384.75;4995541;28;20417;-85
2022/04/13 03:39:58;;;;;;;24.93;15.17;;;;;;;4.11;91.62;99631.69;4995250;28;20865;-85
2022/04/13 03:42:23;;;;;;;38.37;19.37;;;;;;;2.60;89.38;99337.84;4996821;28;20163;-85
2022/04/13 03:44:48;;;;;;;43.87;21.10;;;;;;;2.95;88.95;99422.16;4999144;28;20656;-86
2022/04/13 03:47:14;;;;;;;41.23;20.27;;;;;;;3.10;87.48;99416.53;4998611;28;20235;-85
2022/04/13 03:49:39;;;;;;;32.07;17.60;;;;;;;4.16;86.85;99607.81;4994685;28;20174;-86
2022/04/13 03:52:05;;;;;;;27.43;16.23;;;;;;;4.35;86.57;99670.16;4994758;28;20202;-86
2022/04/13 03:54:30;;;;;;;25.93;16.27;;;;;;;3.19;86.90;99480.56;4994531;28;20167;-86
2022/04/13 03:56:56;;;;;;;26.40;17.20;;;;;;;2.79;87.78;99414.28;4994607;28;20165;-86
2022/04/13 03:59:22;;;;;;;28.33;16.40;;;;;;;4.66;88.32;99725.09;4993288;28;20706;-86
2022/04/13 04:01:48;;;;;;;38.40;18.07;;;;;;;3.20;88.96;99493.94;4993218;28;20662;-86
2022/04/13 04:04:13;;;;;;;44.27;25.20;;;;;;;3.03;87.52;99450.19;4994153;28;20458;-86
2022/04/13 04:06:39;;;;;;;41.67;21.40;;;;;;;4.41;89.65;99738.25;4993000;28;20419;-86
2022/04/13 04:09:05;;;;;;;39.10;18.27;;;;;;;1.34;92.56;99226.03;4994377;28;20163;-86
2022/04/13 04:11:30;;;;;;;27.83;15.27;;;;;;;1.91;92.20;99343.44;4994034;28;20187;-86
2022/04/13 04:13:56;;;;;;;27.73;15.07;;;;;;;3.97;92.39;99667.38;4992875;28;20254;-85
2022/04/13 04:16:21;;;;;;;28.30;14.10;;;;;;;3.69;93.03;99611.91;4994300;28;20204;-86
2022/04/13 04:18:48;;;;;;;29.37;16.10;;;;;;;4.01;94.17;99685.22;5008859;28;20271;-85
2022/04/13 04:21:15;;;;;;;35.07;17.30;;;;;;;4.24;98.17;99743.66;4992704;28;20229;-85
2022/04/13 04:23:41;;;;;;;37.50;18.53;;;;;;;3.80;98.30;99686.16;5013223;28;20464;-86
2022/04/13 04:26:06;;;;;;;69.10;35.73;;;;;;;4.30;97.67;99756.66;5012794;28;20418;-85
2022/04/13 04:28:32;;;;;;;42.23;22.13;;;;;;;3.32;99.05;99627.44;5013420;28;20229;-85
2022/04/13 04:30:57;;;;;;;42.60;22.53;;;;;;;4.24;98.52;99766.22;5012942;28;20178;-86
2022/04/13 04:33:24;;;;;;;46.23;23.37;;;;;;;1.10;98.94;99256.53;5012165;28;20206;-86
2022/04/13 04:35:51;;;;;;;35.70;18.40;;;;;;;1.66;96.71;99296.69;5013072;28;20163;-86
2022/04/13 04:38:17;;;;;;;33.47;17.27;;;;;;;4.24;94.63;99698.56;5013156;28;20421;-85
2022/04/13 04:40:43;;;;;;;37.73;16.77;;;;;;;2.15;99.62;99458.53;5013070;28;20410;-86
2022/04/13 04:43:09;;;;;;;39.47;20.10;;;;;;;3.92;100.00;99739.66;5011353;28;20500;-86
2022/04/13 04:45:34;;;;;;;41.27;19.83;;;;;;;3.11;99.09;99578.28;5012837;28;20269;-86
2022/04/13 04:48:04;;;;;;;28.23;16.70;;;;;;;4.34;98.13;99791.22;5013287;28;20226;-87
2022/04/13 04:50:31;;;;;;;35.97;16.93;;;;;;;4.63;95.76;99772.53;5012771;28;20175;-86
2022/04/13 04:52:57;;;;;;;26.53;14.17;;;;;;;4.30;91.47;99691.50;5013902;28;20406;-86
2022/04/13 04:55:22;;;;;;;35.67;18.20;;;;;;;2.62;89.59;99403.78;5013151;28;20628;-85
2022/04/13 04:57:48;;;;;;;39.33;18.50;;;;;;;2.69;89.93;99428.50;5012275;28;20236;-85
2022/04/13 05:00:20;;;;;;;51.97;25.93;;;;;;;2.58;89.91;99406.84;5014534;28;20249;-84
2022/04/13 05:02:52;;;;;;;25.20;14.87;;;;;;;2.68;90.58;99464.22;5025600;28;20417;-85
2022/04/13 05:05:19;;;;;;;30.83;15.07;;;;;;;4.96;88.91;99794.13;5013876;28;20512;-86
2022/04/13 05:07:45;;;;;;;53.33;30.00;;;;;;;4.21;90.00;99670.78;5012406;28;20422;-86
2022/04/13 05:10:11;;;;;;;45.67;24.27;;;;;;;4.54;89.21;99710.81;5012961;28;20498;-85
2022/04/13 05:12:56;;;;;;;26.13;15.00;;;;;;;4.89;88.82;99786.91;5012351;28;20167;-85
2022/04/13 05:15:22;;;;;;;30.50;15.00;;;;;;;4.37;90.40;99716.25;5012116;28;20417;-85
2022/04/13 05:17:47;;;;;;;41.13;20.17;;;;;;;3.03;87.28;99402.69;5011806;28;20526;-86
2022/04/13 05:20:13;;;;;;;45.60;23.87;;;;;;;4.63;86.32;99658.81;5011392;28;20172;-86
2022/04/13 05:22:38;;;;;;;48.33;27.93;;;;;;;4.04;85.13;99500.13;5002101;28;20234;-86
2022/04/13 05:25:12;;;;;;;47.20;24.33;;;;;;;4.99;84.49;99627.91;5027352;28;20210;-85
2022/04/13 05:27:38;;;;;;;34.20;21.07;;;;;;;4.72;81.30;99509.03;5011894;28;20617;-85
2022/04/13 05:30:05;;;;;;;44.37;24.93;;;;;;;4.56;78.21;99443.59;4996430;28;20422;-83
2022/04/13 05:32:31;;;;;;;44.90;26.60;;;;;;;5.38;77.73;99584.56;5008127;28;20174;-82
2022/04/13 05:34:59;;;;;;;43.97;21.87;;;;;;;5.55;75.42;99584.06;4999069;28;20395;-85
2022/04/13 05:37:24;;;;;;;25.17;16.30;;;;;;;6.09;76.82;99719.97;5005476;28;20940;-85
2022/04/13 05:39:49;;;;;;;26.17;16.43;;;;;;;5.61;75.66;99580.28;5013203;28;20405;-85
2022/04/13 05:42:15;;;;;;;29.80;18.03;;;;;;;6.94;74.93;99759.09;5023930;28;20194;-83
2022/04/13 05:44:40;;;;;;;24.77;16.13;;;;;;;7.15;73.67;99755.38;5022613;28;20210;-87
2022/04/13 05:47:06;;;;;;;52.57;24.37;;;;;;;6.33;72.71;99584.16;5014268;28;20260;-86
2022/04/13 05:49:31;;;;;;;31.20;15.83;;;;;;;6.02;71.52;99529.34;5010761;28;20217;-85
2022/04/13 05:51:57;;;;;;;20.83;11.07;;;;;;;6.41;73.62;99645.88;5002704;28;20958;-85
2022/04/13 05:54:22;;;;;;;42.33;18.27;;;;;;;6.37;74.99;99616.25;5006316;28;20266;-84
2022/04/13 05:56:47;;;;;;;46.27;19.80;;;;;;;6.97;72.79;99664.53;5007209;28;20729;-86
2022/04/13 05:59:14;;;;;;;29.20;14.10;;;;;;;5.24;70.28;99416.38;5008720;28;20179;-86
2022/04/13 06:01:39;;;;;;;33.10;16.20;;;;;;;7.01;69.13;99671.47;5008986;28;20213;-85
2022/04/13 06:04:05;;;;;;;18.07;11.03;;;;;;;7.74;68.25;99726.31;5008895;28;20584;-86
2022/04/13 06:06:30;;;;;;;18.30;11.47;;;;;;;7.42;66.30;99705.84;5009366;28;20186;-86
2022/04/13 06:08:55;;;;;;;18.07;11.70;;;;;;;7.95;65.39;99704.00;5009337;28;20260;-87
2022/04/13 06:11:21;;;;;;;18.30;11.70;;;;;;;8.53;63.53;99801.59;5009190;28;20649;-86
2022/04/13 06:13:46;;;;;;;38.10;23.77;;;;;;;8.38;61.43;99727.56;5006752;28;20269;-85
